Leonie — PHLE — position and weather

sailwx.info

Track history (hours):
 
Tides and Currents Weather Stations Pressure Air Temp Water Temp Dewpoint Dewpoint Depression Visibility Wind Speed Wind Dir Waves Ship Positions

Leonie

Last reported at 2016-Nov-30 11:12 UTC. Time now 2016-Dec-02 20:14 UTC.
Position N 53°44' W 006°15'.

Length 90 m; draft 5.3 m.

Type: Cargo ship. MMSI: 244772000.

Date/timePositionNaut miles runAvg speedWind from/ knotsBaromVisibWave heightAir tempDewpointWater temp
2016-Nov-30 11:12N 53°44' W 006°15'3 3.7
2016-Nov-30 10:27N 53°43' W 006°11'2 1.9
2016-Nov-30 09:31N 53°42' W 006°08'4 3.9
2016-Nov-30 08:25N 53°47' W 006°07'5 5.3
2016-Nov-30 07:32N 53°50' W 006°02'7 6.9
2016-Nov-30 06:29N 53°56' W 005°54'7 7.0
2016-Nov-30 05:33N 54°01' W 005°47'7 7.1
2016-Nov-30 04:33N 54°06' W 005°39'8 7.8
2016-Nov-30 03:33N 54°12' W 005°31'10 9.6
2016-Nov-30 02:33N 54°20' W 005°21'10 9.6
2016-Nov-30 01:33N 54°29' W 005°17'9 9.1
2016-Nov-30 00:33N 54°38' W 005°23'10 9.7
2016-Nov-29 23:33N 54°46' W 005°31'2812.2
2016-Nov-29 21:14N 55°11' W 005°55'1014.9
2016-Nov-29 20:33N 55°19' W 006°05'1312.5
2016-Nov-29 19:33N 55°27' W 006°23'1212.6
2016-Nov-29 18:33N 55°37' W 006°37'1212.2
2016-Nov-29 17:33N 55°47' W 006°48'46435.2
2016-Nov-29 04:22N 57°46' E 006°51'5 6.8
2016-Nov-29 03:33N 57°46' E 007°02'7 6.6
2016-Nov-29 02:33N 57°46' E 007°14'8 8.0
2016-Nov-29 01:33N 57°45' E 007°29'8 7.7
2016-Nov-29 00:33N 57°45' E 007°44'8 8.1
2016-Nov-28 23:32N 57°45' E 007°59'39498.7
2016-Nov-28 19:33N 58°41' W 004°21'10 9.8
2016-Nov-28 18:33N 58°41' W 004°02'10 9.9
2016-Nov-28 17:33N 58°42' W 003°43'1110.7
2016-Nov-28 16:33N 58°42' W 003°22'1211.9
2016-Nov-28 15:33N 58°43' W 002°60'1212.1
2016-Nov-28 14:34N 58°41' W 002°37'277 9.9
2016-Nov-27 10:33N 57°51' E 006°01'9 9.4
2016-Nov-27 09:33N 57°50' E 006°19'12 9.9
2016-Nov-27 08:23N 57°47' E 006°40'8 9.7
2016-Nov-27 07:33N 57°46' E 006°55'109 9.8
2016-Nov-26 20:25N 57°47' E 010°19'7 8.6
2016-Nov-26 19:34N 57°47' E 010°33'8 7.9
2016-Nov-26 18:33N 57°46' E 010°48'9 9.0
2016-Nov-26 17:34N 57°43' E 011°03'10 9.6
2016-Nov-26 16:34N 57°40' E 011°20'10 9.7
2016-Nov-26 15:34N 57°37' E 011°37'6 6.2
2016-Nov-26 14:31N 57°40' E 011°47'0 0.0
2016-Nov-26 13:31N 57°40' E 011°47'3 2.7
2016-Nov-26 12:33N 57°39' E 011°43'9 8.7
2016-Nov-26 11:33N 57°31' E 011°39'9 9.2
2016-Nov-26 10:33N 57°21' E 011°39'9 9.2
2016-Nov-26 09:33N 57°12' E 011°39'10 9.5
2016-Nov-26 08:32N 57°03' E 011°43'9 9.3
2016-Nov-26 07:32N 56°54' E 011°50'41 9.7
2016-Nov-26 03:18N 56°17' E 012°19'7 9.7
2016-Nov-26 02:33N 56°11' E 012°27'9 9.4
2016-Nov-26 01:33N 56°04' E 012°38'9 9.1
2016-Nov-26 00:33N 55°55' E 012°44'1010.2
2016-Nov-25 23:33N 55°45' E 012°42'9 9.3
2016-Nov-25 22:33N 55°36' E 012°42'10 9.6
2016-Nov-25 21:33N 55°26' E 012°42'9 8.9
2016-Nov-25 20:32N 55°18' E 012°46'1010.1
2016-Nov-25 19:33N 55°15' E 013°03'1010.2
2016-Nov-25 18:33N 55°14' E 013°21'1110.8
2016-Nov-25 17:33N 55°14' E 013°40'1110.7
2016-Nov-25 16:33N 55°14' E 013°59'1010.3
2016-Nov-25 15:33N 55°14' E 014°17'1110.8
2016-Nov-25 14:33N 55°23' E 014°29'1110.6
2016-Nov-25 13:33N 55°29' E 014°43'1110.6
2016-Nov-25 12:33N 55°34' E 014°60'7 7.0
2016-Nov-25 11:33N 55°38' E 015°10'2310.7
2016-Nov-25 09:26N 55°50' E 015°45'174 9.2
2016-Nov-24 14:33N 58°37' E 017°17'1010.1
2016-Nov-24 13:33N 58°37' E 016°57'1110.5
2016-Nov-24 12:33N 58°38' E 016°37'1010.1
2016-Nov-24 11:33N 58°38' E 016°18'3 3.1
2016-Nov-24 10:32N 58°36' E 016°13'0 0.0
2016-Nov-24 09:32N 58°36' E 016°13'0 0.0
2016-Nov-24 08:32N 58°36' E 016°13'0 0.0
2016-Nov-24 07:32N 58°36' E 016°13'0 0.0
2016-Nov-24 06:32N 58°36' E 016°13'0 0.0
2016-Nov-24 05:26N 58°36' E 016°13'0 0.0
2016-Nov-24 04:32N 58°36' E 016°13'0 0.0
2016-Nov-24 03:32N 58°36' E 016°13'0 0.0
2016-Nov-24 02:32N 58°36' E 016°13'0 0.0
2016-Nov-24 01:26N 58°36' E 016°13'0 0.0
2016-Nov-24 00:26N 58°36' E 016°13'0 0.0
2016-Nov-23 23:32N 58°36' E 016°13'0 0.0
2016-Nov-23 22:32N 58°36' E 016°13'0 0.0
2016-Nov-23 21:32N 58°36' E 016°13'0 0.0
2016-Nov-23 20:32N 58°36' E 016°13'0 0.0
2016-Nov-23 19:32N 58°36' E 016°13'0 0.0
2016-Nov-23 18:32N 58°36' E 016°13'0 0.0
2016-Nov-23 17:32N 58°36' E 016°13'0 0.0
2016-Nov-23 16:32N 58°36' E 016°13'0 0.0
2016-Nov-23 15:32N 58°36' E 016°13'0 0.0
2016-Nov-23 14:32N 58°36' E 016°13'0 0.0
2016-Nov-23 13:32N 58°36' E 016°13'0 0.0
2016-Nov-23 12:32N 58°36' E 016°13'0 0.0
2016-Nov-23 11:32N 58°36' E 016°13'0 0.0
2016-Nov-23 10:32N 58°36' E 016°13'0 0.0
2016-Nov-23 09:32N 58°36' E 016°13'0 0.0
2016-Nov-23 08:32N 58°36' E 016°13'0 0.0
2016-Nov-23 07:32N 58°36' E 016°13'0 0.0
2016-Nov-23 06:32N 58°36' E 016°13'0 0.0
2016-Nov-23 03:29N 58°36' E 016°13'0 0.0
2016-Nov-23 02:29N 58°36' E 016°13'0 0.0
2016-Nov-23 00:29N 58°36' E 016°13'0 0.0
2016-Nov-22 23:29N 58°36' E 016°13'0 0.0
2016-Nov-22 22:29N 58°36' E 016°13'0 0.0
2016-Nov-22 20:29N 58°36' E 016°13'0 0.0
2016-Nov-22 19:17N 58°36' E 016°13'0 0.0
2016-Nov-22 17:29N 58°36' E 016°13'0 0.0
2016-Nov-22 16:29N 58°36' E 016°13'0 0.0
2016-Nov-22 15:32N 58°36' E 016°13'0 0.0
2016-Nov-22 14:32N 58°36' E 016°13'0 0.0
2016-Nov-22 13:32N 58°36' E 016°13'0 0.0
2016-Nov-22 10:32N 58°36' E 016°13'0 0.0
2016-Nov-22 09:32N 58°36' E 016°13'0 0.0
2016-Nov-22 08:32N 58°36' E 016°13'0 0.0
2016-Nov-22 07:32N 58°36' E 016°13'0 0.0
2016-Nov-22 05:32N 58°36' E 016°13'0 0.0
2016-Nov-22 04:32N 58°36' E 016°13'0 0.0
2016-Nov-22 03:32N 58°36' E 016°13'0 0.0
2016-Nov-22 02:32N 58°36' E 016°13'0 0.0
2016-Nov-21 23:32N 58°36' E 016°13'0 0.0
2016-Nov-21 21:32N 58°36' E 016°13'0 0.0
2016-Nov-21 17:32N 58°36' E 016°13'0 0.0
2016-Nov-21 14:26N 58°36' E 016°13'0 0.0
2016-Nov-21 13:32N 58°36' E 016°13'0 0.0
2016-Nov-21 12:32N 58°36' E 016°13'0 0.0
2016-Nov-21 11:32N 58°36' E 016°13'0 0.0
2016-Nov-21 10:20N 58°36' E 016°13'0 0.0
2016-Nov-21 08:32N 58°36' E 016°13'0 0.0
2016-Nov-21 07:32N 58°36' E 016°13'0 0.0
2016-Nov-21 05:32N 58°36' E 016°13'0 0.0
2016-Nov-21 04:32N 58°36' E 016°13'0 0.0
2016-Nov-21 02:32N 58°36' E 016°13'0 0.0
2016-Nov-21 00:32N 58°36' E 016°13'0 0.0
2016-Nov-20 22:32N 58°36' E 016°13'0 0.0
2016-Nov-20 21:32N 58°36' E 016°13'1 0.2
2016-Nov-20 17:33N 58°37' E 016°11'0 0.0
2016-Nov-20 16:31N 58°36' E 016°11'0 0.0
2016-Nov-20 14:31N 58°36' E 016°11'0 0.0
2016-Nov-20 13:28N 58°36' E 016°11'0 0.0
2016-Nov-20 12:31N 58°36' E 016°11'  
Track history (hours):
 
Tides and Currents Weather Stations Pressure Air Temp Water Temp Dewpoint Dewpoint Depression Visibility Wind Speed Wind Dir Waves Ship Positions

Leonie

Last reported at 2016-Nov-30 11:12 UTC. Time now 2016-Dec-02 20:14 UTC.
Position N 53°44' W 006°15'.

Length 90 m; draft 5.3 m.

Type: Cargo ship. MMSI: 244772000.

Date/timePositionNaut miles runAvg speedWind from/ knotsBaromVisibWave heightAir tempDewpointWater temp
2016-Nov-30 11:12N 53°44' W 006°15'3 3.7
2016-Nov-30 10:27N 53°43' W 006°11'2 1.9
2016-Nov-30 09:31N 53°42' W 006°08'4 3.9
2016-Nov-30 08:25N 53°47' W 006°07'5 5.3
2016-Nov-30 07:32N 53°50' W 006°02'7 6.9
2016-Nov-30 06:29N 53°56' W 005°54'7 7.0
2016-Nov-30 05:33N 54°01' W 005°47'7 7.1
2016-Nov-30 04:33N 54°06' W 005°39'8 7.8
2016-Nov-30 03:33N 54°12' W 005°31'10 9.6
2016-Nov-30 02:33N 54°20' W 005°21'10 9.6
2016-Nov-30 01:33N 54°29' W 005°17'9 9.1
2016-Nov-30 00:33N 54°38' W 005°23'10 9.7
2016-Nov-29 23:33N 54°46' W 005°31'2812.2
2016-Nov-29 21:14N 55°11' W 005°55'1014.9
2016-Nov-29 20:33N 55°19' W 006°05'1312.5
2016-Nov-29 19:33N 55°27' W 006°23'1212.6
2016-Nov-29 18:33N 55°37' W 006°37'1212.2
2016-Nov-29 17:33N 55°47' W 006°48'46435.2
2016-Nov-29 04:22N 57°46' E 006°51'5 6.8
2016-Nov-29 03:33N 57°46' E 007°02'7 6.6
2016-Nov-29 02:33N 57°46' E 007°14'8 8.0
2016-Nov-29 01:33N 57°45' E 007°29'8 7.7
2016-Nov-29 00:33N 57°45' E 007°44'8 8.1
2016-Nov-28 23:32N 57°45' E 007°59'39498.7
2016-Nov-28 19:33N 58°41' W 004°21'10 9.8
2016-Nov-28 18:33N 58°41' W 004°02'10 9.9
2016-Nov-28 17:33N 58°42' W 003°43'1110.7
2016-Nov-28 16:33N 58°42' W 003°22'1211.9
2016-Nov-28 15:33N 58°43' W 002°60'1212.1
2016-Nov-28 14:34N 58°41' W 002°37'277 9.9
2016-Nov-27 10:33N 57°51' E 006°01'9 9.4
2016-Nov-27 09:33N 57°50' E 006°19'12 9.9
2016-Nov-27 08:23N 57°47' E 006°40'8 9.7
2016-Nov-27 07:33N 57°46' E 006°55'109 9.8
2016-Nov-26 20:25N 57°47' E 010°19'7 8.6
2016-Nov-26 19:34N 57°47' E 010°33'8 7.9
2016-Nov-26 18:33N 57°46' E 010°48'9 9.0
2016-Nov-26 17:34N 57°43' E 011°03'10 9.6
2016-Nov-26 16:34N 57°40' E 011°20'10 9.7
2016-Nov-26 15:34N 57°37' E 011°37'6 6.2
2016-Nov-26 14:31N 57°40' E 011°47'0 0.0
2016-Nov-26 13:31N 57°40' E 011°47'3 2.7
2016-Nov-26 12:33N 57°39' E 011°43'9 8.7
2016-Nov-26 11:33N 57°31' E 011°39'9 9.2
2016-Nov-26 10:33N 57°21' E 011°39'9 9.2
2016-Nov-26 09:33N 57°12' E 011°39'10 9.5
2016-Nov-26 08:32N 57°03' E 011°43'9 9.3
2016-Nov-26 07:32N 56°54' E 011°50'41 9.7
2016-Nov-26 03:18N 56°17' E 012°19'7 9.7
2016-Nov-26 02:33N 56°11' E 012°27'9 9.4
2016-Nov-26 01:33N 56°04' E 012°38'9 9.1
2016-Nov-26 00:33N 55°55' E 012°44'1010.2
2016-Nov-25 23:33N 55°45' E 012°42'9 9.3
2016-Nov-25 22:33N 55°36' E 012°42'10 9.6
2016-Nov-25 21:33N 55°26' E 012°42'9 8.9
2016-Nov-25 20:32N 55°18' E 012°46'1010.1
2016-Nov-25 19:33N 55°15' E 013°03'1010.2
2016-Nov-25 18:33N 55°14' E 013°21'1110.8
2016-Nov-25 17:33N 55°14' E 013°40'1110.7
2016-Nov-25 16:33N 55°14' E 013°59'1010.3
2016-Nov-25 15:33N 55°14' E 014°17'1110.8
2016-Nov-25 14:33N 55°23' E 014°29'1110.6
2016-Nov-25 13:33N 55°29' E 014°43'1110.6
2016-Nov-25 12:33N 55°34' E 014°60'7 7.0
2016-Nov-25 11:33N 55°38' E 015°10'2310.7
2016-Nov-25 09:26N 55°50' E 015°45'174 9.2
2016-Nov-24 14:33N 58°37' E 017°17'1010.1
2016-Nov-24 13:33N 58°37' E 016°57'1110.5
2016-Nov-24 12:33N 58°38' E 016°37'1010.1
2016-Nov-24 11:33N 58°38' E 016°18'3 3.1
2016-Nov-24 10:32N 58°36' E 016°13'0 0.0
2016-Nov-24 09:32N 58°36' E 016°13'0 0.0
2016-Nov-24 08:32N 58°36' E 016°13'0 0.0
2016-Nov-24 07:32N 58°36' E 016°13'0 0.0
2016-Nov-24 06:32N 58°36' E 016°13'0 0.0
2016-Nov-24 05:26N 58°36' E 016°13'0 0.0
2016-Nov-24 04:32N 58°36' E 016°13'0 0.0
2016-Nov-24 03:32N 58°36' E 016°13'0 0.0
2016-Nov-24 02:32N 58°36' E 016°13'0 0.0
2016-Nov-24 01:26N 58°36' E 016°13'0 0.0
2016-Nov-24 00:26N 58°36' E 016°13'0 0.0
2016-Nov-23 23:32N 58°36' E 016°13'0 0.0
2016-Nov-23 22:32N 58°36' E 016°13'0 0.0
2016-Nov-23 21:32N 58°36' E 016°13'0 0.0
2016-Nov-23 20:32N 58°36' E 016°13'0 0.0
2016-Nov-23 19:32N 58°36' E 016°13'0 0.0
2016-Nov-23 18:32N 58°36' E 016°13'0 0.0
2016-Nov-23 17:32N 58°36' E 016°13'0 0.0
2016-Nov-23 16:32N 58°36' E 016°13'0 0.0
2016-Nov-23 15:32N 58°36' E 016°13'0 0.0
2016-Nov-23 14:32N 58°36' E 016°13'0 0.0
2016-Nov-23 13:32N 58°36' E 016°13'0 0.0
2016-Nov-23 12:32N 58°36' E 016°13'0 0.0
2016-Nov-23 11:32N 58°36' E 016°13'0 0.0
2016-Nov-23 10:32N 58°36' E 016°13'0 0.0
2016-Nov-23 09:32N 58°36' E 016°13'0 0.0
2016-Nov-23 08:32N 58°36' E 016°13'0 0.0
2016-Nov-23 07:32N 58°36' E 016°13'0 0.0
2016-Nov-23 06:32N 58°36' E 016°13'0 0.0
2016-Nov-23 03:29N 58°36' E 016°13'0 0.0
2016-Nov-23 02:29N 58°36' E 016°13'0 0.0
2016-Nov-23 00:29N 58°36' E 016°13'0 0.0
2016-Nov-22 23:29N 58°36' E 016°13'0 0.0
2016-Nov-22 22:29N 58°36' E 016°13'0 0.0
2016-Nov-22 20:29N 58°36' E 016°13'0 0.0
2016-Nov-22 19:17N 58°36' E 016°13'0 0.0
2016-Nov-22 17:29N 58°36' E 016°13'0 0.0
2016-Nov-22 16:29N 58°36' E 016°13'0 0.0
2016-Nov-22 15:32N 58°36' E 016°13'0 0.0
2016-Nov-22 14:32N 58°36' E 016°13'0 0.0
2016-Nov-22 13:32N 58°36' E 016°13'0 0.0
2016-Nov-22 10:32N 58°36' E 016°13'0 0.0
2016-Nov-22 09:32N 58°36' E 016°13'0 0.0
2016-Nov-22 08:32N 58°36' E 016°13'0 0.0
2016-Nov-22 07:32N 58°36' E 016°13'0 0.0
2016-Nov-22 05:32N 58°36' E 016°13'0 0.0
2016-Nov-22 04:32N 58°36' E 016°13'0 0.0
2016-Nov-22 03:32N 58°36' E 016°13'0 0.0
2016-Nov-22 02:32N 58°36' E 016°13'0 0.0
2016-Nov-21 23:32N 58°36' E 016°13'0 0.0
2016-Nov-21 21:32N 58°36' E 016°13'0 0.0
2016-Nov-21 17:32N 58°36' E 016°13'0 0.0
2016-Nov-21 14:26N 58°36' E 016°13'0 0.0
2016-Nov-21 13:32N 58°36' E 016°13'0 0.0
2016-Nov-21 12:32N 58°36' E 016°13'0 0.0
2016-Nov-21 11:32N 58°36' E 016°13'0 0.0
2016-Nov-21 10:20N 58°36' E 016°13'0 0.0
2016-Nov-21 08:32N 58°36' E 016°13'0 0.0
2016-Nov-21 07:32N 58°36' E 016°13'0 0.0
2016-Nov-21 05:32N 58°36' E 016°13'0 0.0
2016-Nov-21 04:32N 58°36' E 016°13'0 0.0
2016-Nov-21 02:32N 58°36' E 016°13'0 0.0
2016-Nov-21 00:32N 58°36' E 016°13'0 0.0
2016-Nov-20 22:32N 58°36' E 016°13'0 0.0
2016-Nov-20 21:32N 58°36' E 016°13'1 0.2
2016-Nov-20 17:33N 58°37' E 016°11'0 0.0
2016-Nov-20 16:31N 58°36' E 016°11'0 0.0
2016-Nov-20 14:31N 58°36' E 016°11'0 0.0
2016-Nov-20 13:28N 58°36' E 016°11'0 0.0
2016-Nov-20 12:31N 58°36' E 016°11'  

Dump ship's entire track history